sensor_id;sensor_type;location;lat;lon;timestamp;temperature;humidity
17918;DHT22;9084;50.956;3.106;2023-05-10T00:02:00;13.10;99.90
17918;DHT22;9084;50.956;3.106;2023-05-10T00:04:26;13.10;99.90
17918;DHT22;9084;50.956;3.106;2023-05-10T00:06:53;13.10;99.90
17918;DHT22;9084;50.956;3.106;2023-05-10T00:09:19;13.10;99.90
17918;DHT22;9084;50.956;3.106;2023-05-10T00:11:44;13.20;99.90
17918;DHT22;9084;50.956;3.106;2023-05-10T00:14:12;13.20;99.90
17918;DHT22;9084;50.956;3.106;2023-05-10T00:16:38;13.20;99.90
17918;DHT22;9084;50.956;3.106;2023-05-10T00:19:06;13.20;99.90
17918;DHT22;9084;50.956;3.106;2023-05-10T00:21:34;13.20;99.90
17918;DHT22;9084;50.956;3.106;2023-05-10T00:24:00;13.20;99.90
17918;DHT22;9084;50.956;3.106;2023-05-10T00:26:28;13.20;99.90
17918;DHT22;9084;50.956;3.106;2023-05-10T00:28:56;13.10;99.90
17918;DHT22;9084;50.956;3.106;2023-05-10T00:31:26;13.10;99.90
17918;DHT22;9084;50.956;3.106;2023-05-10T00:33:52;13.20;99.90
17918;DHT22;9084;50.956;3.106;2023-05-10T00:36:20;13.10;99.90
17918;DHT22;9084;50.956;3.106;2023-05-10T00:38:46;13.10;99.90
17918;DHT22;9084;50.956;3.106;2023-05-10T00:41:12;13.10;99.90
17918;DHT22;9084;50.956;3.106;2023-05-10T00:43:37;13.10;99.90
17918;DHT22;9084;50.956;3.106;2023-05-10T00:46:04;13.10;99.90
17918;DHT22;9084;50.956;3.106;2023-05-10T00:48:30;13.10;99.90
17918;DHT22;9084;50.956;3.106;2023-05-10T00:50:55;13.10;99.90
17918;DHT22;9084;50.956;3.106;2023-05-10T00:53:21;13.10;99.90
17918;DHT22;9084;50.956;3.106;2023-05-10T00:55:47;13.10;99.90
17918;DHT22;9084;50.956;3.106;2023-05-10T00:58:13;13.10;99.90
17918;DHT22;9084;50.956;3.106;2023-05-10T01:00:43;13.20;99.90
17918;DHT22;9084;50.956;3.106;2023-05-10T01:03:11;13.20;99.90
17918;DHT22;9084;50.956;3.106;2023-05-10T01:05:37;13.20;99.90
17918;DHT22;9084;50.956;3.106;2023-05-10T01:08:03;13.20;99.90
17918;DHT22;9084;50.956;3.106;2023-05-10T01:10:32;13.20;99.90
17918;DHT22;9084;50.956;3.106;2023-05-10T01:13:00;13.20;99.90
17918;DHT22;9084;50.956;3.106;2023-05-10T01:15:28;13.30;99.90
17918;DHT22;9084;50.956;3.106;2023-05-10T01:17:56;13.30;99.90
17918;DHT22;9084;50.956;3.106;2023-05-10T01:20:21;13.20;99.90
17918;DHT22;9084;50.956;3.106;2023-05-10T01:34:02;13.10;99.90
17918;DHT22;9084;50.956;3.106;2023-05-10T01:36:47;13.20;99.90
17918;DHT22;9084;50.956;3.106;2023-05-10T01:39:30;13.10;99.90
17918;DHT22;9084;50.956;3.106;2023-05-10T01:42:09;13.10;99.90
17918;DHT22;9084;50.956;3.106;2023-05-10T01:44:58;13.10;99.90
17918;DHT22;9084;50.956;3.106;2023-05-10T01:47:38;13.10;99.90
17918;DHT22;9084;50.956;3.106;2023-05-10T01:50:16;13.10;99.90
17918;DHT22;9084;50.956;3.106;2023-05-10T01:52:51;13.10;99.90
17918;DHT22;9084;50.956;3.106;2023-05-10T01:55:24;13.10;99.90
17918;DHT22;9084;50.956;3.106;2023-05-10T01:57:56;13.10;99.90
17918;DHT22;9084;50.956;3.106;2023-05-10T02:00:24;13.10;99.90
17918;DHT22;9084;50.956;3.106;2023-05-10T02:02:52;13.10;99.90
17918;DHT22;9084;50.956;3.106;2023-05-10T02:05:20;13.10;99.90
17918;DHT22;9084;50.956;3.106;2023-05-10T02:07:47;13.10;99.90
17918;DHT22;9084;50.956;3.106;2023-05-10T02:10:14;13.10;99.90
17918;DHT22;9084;50.956;3.106;2023-05-10T02:12:47;13.10;99.90
17918;DHT22;9084;50.956;3.106;2023-05-10T02:15:23;13.10;99.90
17918;DHT22;9084;50.956;3.106;2023-05-10T02:17:50;13.10;99.90
17918;DHT22;9084;50.956;3.106;2023-05-10T02:20:18;13.10;99.90
17918;DHT22;9084;50.956;3.106;2023-05-10T02:22:47;13.10;99.90
17918;DHT22;9084;50.956;3.106;2023-05-10T02:25:14;13.10;99.90
17918;DHT22;9084;50.956;3.106;2023-05-10T02:27:42;13.20;99.90
17918;DHT22;9084;50.956;3.106;2023-05-10T02:30:10;13.20;99.90
17918;DHT22;9084;50.956;3.106;2023-05-10T02:32:36;13.10;99.90
17918;DHT22;9084;50.956;3.106;2023-05-10T02:35:05;13.10;99.90
17918;DHT22;9084;50.956;3.106;2023-05-10T02:37:33;13.10;99.90
17918;DHT22;9084;50.956;3.106;2023-05-10T02:40:00;13.10;99.90
17918;DHT22;9084;50.956;3.106;2023-05-10T02:42:29;13.10;99.90
17918;DHT22;9084;50.956;3.106;2023-05-10T02:45:08;13.10;99.90
17918;DHT22;9084;50.956;3.106;2023-05-10T02:47:38;13.10;99.90
17918;DHT22;9084;50.956;3.106;2023-05-10T02:50:05;13.10;99.90
17918;DHT22;9084;50.956;3.106;2023-05-10T02:52:39;13.00;99.90
17918;DHT22;9084;50.956;3.106;2023-05-10T02:55:07;13.00;99.90
17918;DHT22;9084;50.956;3.106;2023-05-10T02:57:51;13.00;99.90
17918;DHT22;9084;50.956;3.106;2023-05-10T03:00:19;13.00;99.90
17918;DHT22;9084;50.956;3.106;2023-05-10T03:02:45;12.90;99.90
17918;DHT22;9084;50.956;3.106;2023-05-10T03:05:11;12.90;99.90
17918;DHT22;9084;50.956;3.106;2023-05-10T03:07:36;12.90;99.90
17918;DHT22;9084;50.956;3.106;2023-05-10T03:10:03;12.90;99.90
17918;DHT22;9084;50.956;3.106;2023-05-10T03:16:05;12.90;99.90
17918;DHT22;9084;50.956;3.106;2023-05-10T03:18:44;12.90;99.90
17918;DHT22;9084;50.956;3.106;2023-05-10T03:21:13;12.90;99.90
17918;DHT22;9084;50.956;3.106;2023-05-10T03:23:46;12.80;99.90
17918;DHT22;9084;50.956;3.106;2023-05-10T03:26:27;12.80;99.90
17918;DHT22;9084;50.956;3.106;2023-05-10T03:28:55;12.70;99.90
17918;DHT22;9084;50.956;3.106;2023-05-10T03:31:21;12.70;99.90
17918;DHT22;9084;50.956;3.106;2023-05-10T03:33:52;12.70;99.90
17918;DHT22;9084;50.956;3.106;2023-05-10T03:36:20;12.70;99.90
17918;DHT22;9084;50.956;3.106;2023-05-10T03:38:48;12.70;99.90
17918;DHT22;9084;50.956;3.106;2023-05-10T03:41:14;12.70;99.90
17918;DHT22;9084;50.956;3.106;2023-05-10T03:43:42;12.60;99.90
17918;DHT22;9084;50.956;3.106;2023-05-10T03:46:07;12.60;99.90
17918;DHT22;9084;50.956;3.106;2023-05-10T03:48:33;12.60;99.90
17918;DHT22;9084;50.956;3.106;2023-05-10T03:51:01;12.60;99.90
17918;DHT22;9084;50.956;3.106;2023-05-10T03:53:27;12.60;99.90
17918;DHT22;9084;50.956;3.106;2023-05-10T03:55:53;12.70;99.90
17918;DHT22;9084;50.956;3.106;2023-05-10T03:58:18;12.70;99.90
17918;DHT22;9084;50.956;3.106;2023-05-10T04:00:44;12.70;99.90
17918;DHT22;9084;50.956;3.106;2023-05-10T04:03:11;12.70;99.90
17918;DHT22;9084;50.956;3.106;2023-05-10T04:05:37;12.70;99.90
17918;DHT22;9084;50.956;3.106;2023-05-10T04:08:03;12.70;99.90
17918;DHT22;9084;50.956;3.106;2023-05-10T04:10:31;12.70;99.90
17918;DHT22;9084;50.956;3.106;2023-05-10T04:12:57;12.70;99.90
17918;DHT22;9084;50.956;3.106;2023-05-10T04:15:25;12.70;99.90
17918;DHT22;9084;50.956;3.106;2023-05-10T04:17:51;12.70;99.90
17918;DHT22;9084;50.956;3.106;2023-05-10T04:20:17;12.70;99.90
17918;DHT22;9084;50.956;3.106;2023-05-10T04:22:45;12.70;99.90
17918;DHT22;9084;50.956;3.106;2023-05-10T04:25:11;12.70;99.90
17918;DHT22;9084;50.956;3.106;2023-05-10T04:27:36;12.70;99.90
17918;DHT22;9084;50.956;3.106;2023-05-10T04:30:05;12.70;99.90
17918;DHT22;9084;50.956;3.106;2023-05-10T04:32:35;12.80;99.90
17918;DHT22;9084;50.956;3.106;2023-05-10T04:35:01;12.70;99.90
17918;DHT22;9084;50.956;3.106;2023-05-10T04:37:28;12.80;99.90
17918;DHT22;9084;50.956;3.106;2023-05-10T04:39:54;12.80;99.90
17918;DHT22;9084;50.956;3.106;2023-05-10T04:42:20;12.80;99.90
17918;DHT22;9084;50.956;3.106;2023-05-10T04:44:48;12.90;99.90
17918;DHT22;9084;50.956;3.106;2023-05-10T04:47:13;12.90;99.90
17918;DHT22;9084;50.956;3.106;2023-05-10T04:49:39;12.90;99.90
17918;DHT22;9084;50.956;3.106;2023-05-10T04:52:05;12.90;99.90
17918;DHT22;9084;50.956;3.106;2023-05-10T04:54:32;13.00;99.90
17918;DHT22;9084;50.956;3.106;2023-05-10T04:56:58;13.00;99.90
17918;DHT22;9084;50.956;3.106;2023-05-10T04:59:24;13.10;99.90
17918;DHT22;9084;50.956;3.106;2023-05-10T05:01:49;13.00;99.90
17918;DHT22;9084;50.956;3.106;2023-05-10T05:04:17;13.10;99.90
17918;DHT22;9084;50.956;3.106;2023-05-10T05:06:45;13.10;99.90
17918;DHT22;9084;50.956;3.106;2023-05-10T05:09:11;13.20;99.90
17918;DHT22;9084;50.956;3.106;2023-05-10T05:11:36;13.20;99.90
17918;DHT22;9084;50.956;3.106;2023-05-10T05:14:05;13.20;99.90
17918;DHT22;9084;50.956;3.106;2023-05-10T05:16:30;13.30;99.90
17918;DHT22;9084;50.956;3.106;2023-05-10T05:18:59;13.30;99.90
17918;DHT22;9084;50.956;3.106;2023-05-10T05:21:26;13.40;99.90
17918;DHT22;9084;50.956;3.106;2023-05-10T05:23:54;13.40;99.90
17918;DHT22;9084;50.956;3.106;2023-05-10T05:26:22;13.40;99.90
17918;DHT22;9084;50.956;3.106;2023-05-10T05:28:48;13.40;99.90
17918;DHT22;9084;50.956;3.106;2023-05-10T05:31:17;13.50;99.90
17918;DHT22;9084;50.956;3.106;2023-05-10T05:33:43;13.50;99.90
17918;DHT22;9084;50.956;3.106;2023-05-10T05:36:11;13.50;99.90
17918;DHT22;9084;50.956;3.106;2023-05-10T05:38:37;13.50;99.90
17918;DHT22;9084;50.956;3.106;2023-05-10T05:41:03;13.50;99.90
17918;DHT22;9084;50.956;3.106;2023-05-10T05:43:28;13.60;99.90
17918;DHT22;9084;50.956;3.106;2023-05-10T05:45:56;13.50;99.90
17918;DHT22;9084;50.956;3.106;2023-05-10T05:48:23;13.50;99.90
17918;DHT22;9084;50.956;3.106;2023-05-10T05:50:51;13.60;99.90
17918;DHT22;9084;50.956;3.106;2023-05-10T05:53:21;13.60;99.90
17918;DHT22;9084;50.956;3.106;2023-05-10T05:55:56;13.60;99.90
17918;DHT22;9084;50.956;3.106;2023-05-10T05:58:23;13.70;99.90
17918;DHT22;9084;50.956;3.106;2023-05-10T06:00:50;13.80;99.90
17918;DHT22;9084;50.956;3.106;2023-05-10T06:03:15;13.90;99.90
17918;DHT22;9084;50.956;3.106;2023-05-10T06:05:44;14.00;99.90
17918;DHT22;9084;50.956;3.106;2023-05-10T06:08:09;14.10;99.90
17918;DHT22;9084;50.956;3.106;2023-05-10T06:10:35;14.10;99.90
17918;DHT22;9084;50.956;3.106;2023-05-10T06:13:01;14.20;99.90
17918;DHT22;9084;50.956;3.106;2023-05-10T06:15:27;14.20;99.90
17918;DHT22;9084;50.956;3.106;2023-05-10T06:17:55;14.30;99.90
17918;DHT22;9084;50.956;3.106;2023-05-10T06:20:23;14.50;99.90
17918;DHT22;9084;50.956;3.106;2023-05-10T06:22:48;14.60;99.90
17918;DHT22;9084;50.956;3.106;2023-05-10T06:25:14;14.80;99.90
17918;DHT22;9084;50.956;3.106;2023-05-10T06:27:40;14.80;99.90
17918;DHT22;9084;50.956;3.106;2023-05-10T06:30:08;14.70;99.90
17918;DHT22;9084;50.956;3.106;2023-05-10T06:32:34;14.70;99.90
17918;DHT22;9084;50.956;3.106;2023-05-10T06:35:00;14.50;99.90
17918;DHT22;9084;50.956;3.106;2023-05-10T06:37:26;14.40;99.90
17918;DHT22;9084;50.956;3.106;2023-05-10T06:39:51;14.40;99.90
17918;DHT22;9084;50.956;3.106;2023-05-10T06:42:17;14.30;99.90
17918;DHT22;9084;50.956;3.106;2023-05-10T06:44:45;14.20;99.90
17918;DHT22;9084;50.956;3.106;2023-05-10T06:47:11;14.20;99.90
17918;DHT22;9084;50.956;3.106;2023-05-10T06:49:36;14.20;99.90
17918;DHT22;9084;50.956;3.106;2023-05-10T06:52:02;14.20;99.90
17918;DHT22;9084;50.956;3.106;2023-05-10T06:54:30;14.20;99.90
17918;DHT22;9084;50.956;3.106;2023-05-10T06:56:56;14.40;99.90
17918;DHT22;9084;50.956;3.106;2023-05-10T06:59:21;14.60;99.90
17918;DHT22;9084;50.956;3.106;2023-05-10T07:01:50;14.60;99.90
17918;DHT22;9084;50.956;3.106;2023-05-10T07:04:15;14.80;99.90
17918;DHT22;9084;50.956;3.106;2023-05-10T07:06:41;14.90;99.90
17918;DHT22;9084;50.956;3.106;2023-05-10T07:09:07;14.90;99.90
17918;DHT22;9084;50.956;3.106;2023-05-10T07:11:35;15.00;99.90
17918;DHT22;9084;50.956;3.106;2023-05-10T07:14:01;14.90;99.90
17918;DHT22;9084;50.956;3.106;2023-05-10T07:16:29;14.90;99.90
17918;DHT22;9084;50.956;3.106;2023-05-10T07:18:54;14.80;99.90
17918;DHT22;9084;50.956;3.106;2023-05-10T07:21:22;14.90;99.90
17918;DHT22;9084;50.956;3.106;2023-05-10T07:23:49;15.00;99.90
17918;DHT22;9084;50.956;3.106;2023-05-10T07:26:15;14.90;99.90
17918;DHT22;9084;50.956;3.106;2023-05-10T07:28:44;15.00;99.90
17918;DHT22;9084;50.956;3.106;2023-05-10T07:31:12;15.10;99.90
17918;DHT22;9084;50.956;3.106;2023-05-10T07:33:37;15.20;99.90
17918;DHT22;9084;50.956;3.106;2023-05-10T07:36:03;15.40;99.90
17918;DHT22;9084;50.956;3.106;2023-05-10T07:38:33;15.50;99.90
17918;DHT22;9084;50.956;3.106;2023-05-10T07:40:59;15.60;99.90
17918;DHT22;9084;50.956;3.106;2023-05-10T07:43:24;15.50;99.90
17918;DHT22;9084;50.956;3.106;2023-05-10T07:45:52;15.50;99.90
17918;DHT22;9084;50.956;3.106;2023-05-10T07:48:18;15.50;99.90
17918;DHT22;9084;50.956;3.106;2023-05-10T07:50:44;15.60;99.90
17918;DHT22;9084;50.956;3.106;2023-05-10T07:53:09;15.80;99.90
17918;DHT22;9084;50.956;3.106;2023-05-10T07:55:35;15.90;99.90
17918;DHT22;9084;50.956;3.106;2023-05-10T07:58:01;15.90;99.90
17918;DHT22;9084;50.956;3.106;2023-05-10T08:00:27;15.90;99.90
17918;DHT22;9084;50.956;3.106;2023-05-10T08:02:55;15.80;99.90
17918;DHT22;9084;50.956;3.106;2023-05-10T08:05:20;15.60;99.90
17918;DHT22;9084;50.956;3.106;2023-05-10T08:07:46;15.60;99.90
17918;DHT22;9084;50.956;3.106;2023-05-10T08:10:14;15.60;99.90
17918;DHT22;9084;50.956;3.106;2023-05-10T08:12:40;15.80;99.90
17918;DHT22;9084;50.956;3.106;2023-05-10T08:15:06;16.00;99.90
17918;DHT22;9084;50.956;3.106;2023-05-10T08:17:34;16.30;99.90
17918;DHT22;9084;50.956;3.106;2023-05-10T08:20:00;16.50;99.90
17918;DHT22;9084;50.956;3.106;2023-05-10T08:22:26;16.60;99.90
17918;DHT22;9084;50.956;3.106;2023-05-10T08:24:52;16.50;99.90
17918;DHT22;9084;50.956;3.106;2023-05-10T08:27:17;16.20;99.90
17918;DHT22;9084;50.956;3.106;2023-05-10T08:29:45;16.00;99.90
17918;DHT22;9084;50.956;3.106;2023-05-10T08:32:11;15.70;99.90
17918;DHT22;9084;50.956;3.106;2023-05-10T08:34:41;15.50;99.90
17918;DHT22;9084;50.956;3.106;2023-05-10T08:37:07;15.30;99.90
17918;DHT22;9084;50.956;3.106;2023-05-10T08:39:35;15.20;99.90
17918;DHT22;9084;50.956;3.106;2023-05-10T08:42:03;15.10;99.90
17918;DHT22;9084;50.956;3.106;2023-05-10T08:44:36;15.00;99.90
17918;DHT22;9084;50.956;3.106;2023-05-10T08:47:04;14.90;99.90
17918;DHT22;9084;50.956;3.106;2023-05-10T08:49:32;14.80;99.90
17918;DHT22;9084;50.956;3.106;2023-05-10T08:52:03;14.70;99.90
17918;DHT22;9084;50.956;3.106;2023-05-10T08:54:32;14.70;99.90
17918;DHT22;9084;50.956;3.106;2023-05-10T08:57:00;14.70;99.90
17918;DHT22;9084;50.956;3.106;2023-05-10T08:59:26;14.70;99.90
17918;DHT22;9084;50.956;3.106;2023-05-10T09:01:57;14.80;99.90
17918;DHT22;9084;50.956;3.106;2023-05-10T09:04:23;14.80;99.90
17918;DHT22;9084;50.956;3.106;2023-05-10T09:06:49;14.90;99.90
17918;DHT22;9084;50.956;3.106;2023-05-10T09:09:15;14.90;99.90
17918;DHT22;9084;50.956;3.106;2023-05-10T09:11:42;14.90;99.90
17918;DHT22;9084;50.956;3.106;2023-05-10T09:14:09;14.90;99.90
17918;DHT22;9084;50.956;3.106;2023-05-10T09:16:35;14.90;99.90
17918;DHT22;9084;50.956;3.106;2023-05-10T09:19:03;14.80;99.90
17918;DHT22;9084;50.956;3.106;2023-05-10T09:21:32;14.70;99.90
17918;DHT22;9084;50.956;3.106;2023-05-10T09:24:03;14.60;99.90
17918;DHT22;9084;50.956;3.106;2023-05-10T09:26:29;14.50;99.90
17918;DHT22;9084;50.956;3.106;2023-05-10T09:28:59;14.50;99.90
17918;DHT22;9084;50.956;3.106;2023-05-10T09:31:50;14.60;99.90
17918;DHT22;9084;50.956;3.106;2023-05-10T09:34:31;14.80;99.90
17918;DHT22;9084;50.956;3.106;2023-05-10T09:36:59;15.10;99.90
17918;DHT22;9084;50.956;3.106;2023-05-10T09:39:36;15.40;99.90
17918;DHT22;9084;50.956;3.106;2023-05-10T09:42:05;15.70;99.90
17918;DHT22;9084;50.956;3.106;2023-05-10T09:44:32;16.10;99.90
17918;DHT22;9084;50.956;3.106;2023-05-10T09:47:02;16.40;99.90
17918;DHT22;9084;50.956;3.106;2023-05-10T09:49:28;16.80;99.90
17918;DHT22;9084;50.956;3.106;2023-05-10T09:52:04;17.10;99.90
17918;DHT22;9084;50.956;3.106;2023-05-10T09:54:31;17.40;99.90
17918;DHT22;9084;50.956;3.106;2023-05-10T09:56:57;17.50;99.90
17918;DHT22;9084;50.956;3.106;2023-05-10T09:59:26;17.60;99.90
17918;DHT22;9084;50.956;3.106;2023-05-10T10:01:56;17.60;99.90
17918;DHT22;9084;50.956;3.106;2023-05-10T10:04:23;17.70;99.90
17918;DHT22;9084;50.956;3.106;2023-05-10T10:06:59;17.80;99.90
17918;DHT22;9084;50.956;3.106;2023-05-10T10:09:26;17.90;99.90
17918;DHT22;9084;50.956;3.106;2023-05-10T10:11:52;18.00;99.90
17918;DHT22;9084;50.956;3.106;2023-05-10T10:14:22;18.00;99.90
17918;DHT22;9084;50.956;3.106;2023-05-10T10:16:49;18.20;99.90
17918;DHT22;9084;50.956;3.106;2023-05-10T10:19:20;18.20;99.90
17918;DHT22;9084;50.956;3.106;2023-05-10T10:21:47;18.30;99.90
17918;DHT22;9084;50.956;3.106;2023-05-10T10:24:13;18.40;99.90
17918;DHT22;9084;50.956;3.106;2023-05-10T10:26:42;18.30;99.90
17918;DHT22;9084;50.956;3.106;2023-05-10T10:29:25;18.20;99.90
17918;DHT22;9084;50.956;3.106;2023-05-10T10:34:28;18.20;99.90
17918;DHT22;9084;50.956;3.106;2023-05-10T10:36:55;18.30;99.90
17918;DHT22;9084;50.956;3.106;2023-05-10T10:39:23;18.50;99.90
17918;DHT22;9084;50.956;3.106;2023-05-10T10:41:53;18.60;99.90
17918;DHT22;9084;50.956;3.106;2023-05-10T10:49:26;19.00;99.90
17918;DHT22;9084;50.956;3.106;2023-05-10T10:52:14;19.20;99.90
17918;DHT22;9084;50.956;3.106;2023-05-10T10:55:10;19.40;99.90
17918;DHT22;9084;50.956;3.106;2023-05-10T10:57:50;19.50;99.90
17918;DHT22;9084;50.956;3.106;2023-05-10T11:05:37;19.00;99.90
17918;DHT22;9084;50.956;3.106;2023-05-10T11:08:13;18.90;99.90
17918;DHT22;9084;50.956;3.106;2023-05-10T11:15:58;18.90;99.90
17918;DHT22;9084;50.956;3.106;2023-05-10T11:18:25;18.70;99.90
17918;DHT22;9084;50.956;3.106;2023-05-10T11:21:03;18.70;99.90
17918;DHT22;9084;50.956;3.106;2023-05-10T11:26:15;19.10;99.90
17918;DHT22;9084;50.956;3.106;2023-05-10T11:28:47;19.20;99.90
17918;DHT22;9084;50.956;3.106;2023-05-10T11:31:17;19.40;99.90
17918;DHT22;9084;50.956;3.106;2023-05-10T11:33:50;19.50;99.90
17918;DHT22;9084;50.956;3.106;2023-05-10T11:36:20;19.50;99.90
17918;DHT22;9084;50.956;3.106;2023-05-10T11:38:47;19.50;99.90
17918;DHT22;9084;50.956;3.106;2023-05-10T11:41:13;19.40;99.90
17918;DHT22;9084;50.956;3.106;2023-05-10T11:43:39;19.30;99.90
17918;DHT22;9084;50.956;3.106;2023-05-10T11:46:10;19.30;99.90
17918;DHT22;9084;50.956;3.106;2023-05-10T11:48:42;19.20;99.90
17918;DHT22;9084;50.956;3.106;2023-05-10T11:51:11;19.20;99.90
17918;DHT22;9084;50.956;3.106;2023-05-10T11:53:41;19.20;99.90
17918;DHT22;9084;50.956;3.106;2023-05-10T11:56:10;19.20;99.90
17918;DHT22;9084;50.956;3.106;2023-05-10T11:58:39;19.30;99.90
17918;DHT22;9084;50.956;3.106;2023-05-10T12:01:07;19.20;99.90
17918;DHT22;9084;50.956;3.106;2023-05-10T12:03:40;19.20;99.90
17918;DHT22;9084;50.956;3.106;2023-05-10T12:06:08;19.20;99.90
17918;DHT22;9084;50.956;3.106;2023-05-10T12:08:34;19.10;99.90
17918;DHT22;9084;50.956;3.106;2023-05-10T12:11:08;19.00;99.90
17918;DHT22;9084;50.956;3.106;2023-05-10T12:13:38;18.80;99.90
17918;DHT22;9084;50.956;3.106;2023-05-10T12:16:18;18.70;99.90
17918;DHT22;9084;50.956;3.106;2023-05-10T12:18:45;18.60;99.90
17918;DHT22;9084;50.956;3.106;2023-05-10T12:21:16;18.60;99.90
17918;DHT22;9084;50.956;3.106;2023-05-10T12:23:48;18.70;98.40
17918;DHT22;9084;50.956;3.106;2023-05-10T12:26:17;18.60;99.90
17918;DHT22;9084;50.956;3.106;2023-05-10T12:28:45;18.70;99.40
17918;DHT22;9084;50.956;3.106;2023-05-10T12:31:11;18.60;99.90
17918;DHT22;9084;50.956;3.106;2023-05-10T12:33:42;18.60;99.90
17918;DHT22;9084;50.956;3.106;2023-05-10T12:36:09;18.50;99.90
17918;DHT22;9084;50.956;3.106;2023-05-10T12:38:37;18.60;98.70
17918;DHT22;9084;50.956;3.106;2023-05-10T12:41:05;18.70;99.90
17918;DHT22;9084;50.956;3.106;2023-05-10T12:43:31;18.70;99.90
17918;DHT22;9084;50.956;3.106;2023-05-10T12:45:57;18.70;99.20
17918;DHT22;9084;50.956;3.106;2023-05-10T12:48:23;18.90;99.90
17918;DHT22;9084;50.956;3.106;2023-05-10T12:50:51;19.00;94.10
17918;DHT22;9084;50.956;3.106;2023-05-10T12:53:17;19.20;95.70
17918;DHT22;9084;50.956;3.106;2023-05-10T12:55:43;19.30;99.90
17918;DHT22;9084;50.956;3.106;2023-05-10T12:58:09;19.20;96.20
17918;DHT22;9084;50.956;3.106;2023-05-10T13:00:35;19.00;99.40
17918;DHT22;9084;50.956;3.106;2023-05-10T13:03:04;18.90;98.90
17918;DHT22;9084;50.956;3.106;2023-05-10T13:05:36;18.70;96.90
17918;DHT22;9084;50.956;3.106;2023-05-10T13:08:02;18.70;99.90
17918;DHT22;9084;50.956;3.106;2023-05-10T13:10:29;18.60;99.90
17918;DHT22;9084;50.956;3.106;2023-05-10T13:12:56;18.60;99.90
17918;DHT22;9084;50.956;3.106;2023-05-10T13:15:22;18.60;99.40
17918;DHT22;9084;50.956;3.106;2023-05-10T13:17:50;18.70;98.30
17918;DHT22;9084;50.956;3.106;2023-05-10T13:20:20;18.70;97.90
17918;DHT22;9084;50.956;3.106;2023-05-10T13:22:46;18.70;96.90
17918;DHT22;9084;50.956;3.106;2023-05-10T13:25:16;18.80;96.90
17918;DHT22;9084;50.956;3.106;2023-05-10T13:27:44;18.80;96.50
17918;DHT22;9084;50.956;3.106;2023-05-10T13:30:10;18.80;94.60
17918;DHT22;9084;50.956;3.106;2023-05-10T13:32:37;18.90;94.80
17918;DHT22;9084;50.956;3.106;2023-05-10T13:35:05;18.90;95.20
17918;DHT22;9084;50.956;3.106;2023-05-10T13:37:33;19.00;94.40
17918;DHT22;9084;50.956;3.106;2023-05-10T13:40:02;19.20;94.50
17918;DHT22;9084;50.956;3.106;2023-05-10T13:42:29;19.20;94.10
17918;DHT22;9084;50.956;3.106;2023-05-10T13:44:55;19.20;93.20
17918;DHT22;9084;50.956;3.106;2023-05-10T13:47:22;19.30;94.30
17918;DHT22;9084;50.956;3.106;2023-05-10T13:49:48;19.50;93.80
17918;DHT22;9084;50.956;3.106;2023-05-10T13:52:14;19.50;93.80
17918;DHT22;9084;50.956;3.106;2023-05-10T13:54:39;19.40;95.10
17918;DHT22;9084;50.956;3.106;2023-05-10T13:57:05;19.40;96.80
17918;DHT22;9084;50.956;3.106;2023-05-10T13:59:31;19.30;95.00
17918;DHT22;9084;50.956;3.106;2023-05-10T14:01:58;19.20;95.50
17918;DHT22;9084;50.956;3.106;2023-05-10T14:04:28;19.20;95.50
17918;DHT22;9084;50.956;3.106;2023-05-10T14:06:59;19.10;95.90
17918;DHT22;9084;50.956;3.106;2023-05-10T14:09:27;18.90;96.40
17918;DHT22;9084;50.956;3.106;2023-05-10T14:11:52;18.80;95.80
17918;DHT22;9084;50.956;3.106;2023-05-10T14:14:18;18.80;94.70
17918;DHT22;9084;50.956;3.106;2023-05-10T14:16:44;18.80;93.40
17918;DHT22;9084;50.956;3.106;2023-05-10T14:19:12;18.80;93.30
17918;DHT22;9084;50.956;3.106;2023-05-10T14:21:38;18.90;93.50
17918;DHT22;9084;50.956;3.106;2023-05-10T14:24:04;19.00;96.80
17918;DHT22;9084;50.956;3.106;2023-05-10T14:26:29;19.10;94.90
17918;DHT22;9084;50.956;3.106;2023-05-10T14:28:55;19.10;94.60
17918;DHT22;9084;50.956;3.106;2023-05-10T14:31:21;19.30;94.90
17918;DHT22;9084;50.956;3.106;2023-05-10T14:33:51;19.40;94.30
17918;DHT22;9084;50.956;3.106;2023-05-10T14:36:17;19.40;91.90
17918;DHT22;9084;50.956;3.106;2023-05-10T14:38:43;19.30;92.10
17918;DHT22;9084;50.956;3.106;2023-05-10T14:41:09;19.20;92.80
17918;DHT22;9084;50.956;3.106;2023-05-10T14:43:37;19.10;93.20
17918;DHT22;9084;50.956;3.106;2023-05-10T14:46:02;19.10;91.80
17918;DHT22;9084;50.956;3.106;2023-05-10T14:48:28;18.90;91.20
17918;DHT22;9084;50.956;3.106;2023-05-10T14:50:53;18.80;92.30
17918;DHT22;9084;50.956;3.106;2023-05-10T14:53:22;18.70;91.50
17918;DHT22;9084;50.956;3.106;2023-05-10T14:55:47;18.70;91.80
17918;DHT22;9084;50.956;3.106;2023-05-10T14:58:15;18.70;90.80
17918;DHT22;9084;50.956;3.106;2023-05-10T15:00:44;18.70;92.30
17918;DHT22;9084;50.956;3.106;2023-05-10T15:03:12;18.80;91.60
17918;DHT22;9084;50.956;3.106;2023-05-10T15:05:37;18.70;91.70
17918;DHT22;9084;50.956;3.106;2023-05-10T15:08:03;18.80;92.80
17918;DHT22;9084;50.956;3.106;2023-05-10T15:10:30;18.70;92.40
17918;DHT22;9084;50.956;3.106;2023-05-10T15:12:58;18.70;91.90
17918;DHT22;9084;50.956;3.106;2023-05-10T15:15:24;18.70;91.90
17918;DHT22;9084;50.956;3.106;2023-05-10T15:17:51;18.80;92.70
17918;DHT22;9084;50.956;3.106;2023-05-10T15:20:17;18.90;94.10
17918;DHT22;9084;50.956;3.106;2023-05-10T15:22:43;19.10;93.60
17918;DHT22;9084;50.956;3.106;2023-05-10T15:25:09;19.10;91.60
17918;DHT22;9084;50.956;3.106;2023-05-10T15:27:35;19.10;91.60
17918;DHT22;9084;50.956;3.106;2023-05-10T15:30:00;19.20;91.20
17918;DHT22;9084;50.956;3.106;2023-05-10T15:32:28;19.30;91.40
17918;DHT22;9084;50.956;3.106;2023-05-10T15:34:57;19.50;92.10
17918;DHT22;9084;50.956;3.106;2023-05-10T15:37:25;19.60;92.70
17918;DHT22;9084;50.956;3.106;2023-05-10T15:39:51;19.60;90.60
17918;DHT22;9084;50.956;3.106;2023-05-10T15:42:21;19.60;88.90
17918;DHT22;9084;50.956;3.106;2023-05-10T15:44:47;19.50;90.00
17918;DHT22;9084;50.956;3.106;2023-05-10T15:47:15;19.50;90.00
17918;DHT22;9084;50.956;3.106;2023-05-10T15:49:41;19.60;89.40
17918;DHT22;9084;50.956;3.106;2023-05-10T15:52:06;19.50;88.70
17918;DHT22;9084;50.956;3.106;2023-05-10T15:54:32;19.50;89.10
17918;DHT22;9084;50.956;3.106;2023-05-10T15:56:58;19.50;90.40
17918;DHT22;9084;50.956;3.106;2023-05-10T15:59:24;19.60;90.00
17918;DHT22;9084;50.956;3.106;2023-05-10T16:01:50;19.50;90.90
17918;DHT22;9084;50.956;3.106;2023-05-10T16:04:18;19.50;89.30
17918;DHT22;9084;50.956;3.106;2023-05-10T16:06:46;19.40;90.10
17918;DHT22;9084;50.956;3.106;2023-05-10T16:09:12;19.40;89.00
17918;DHT22;9084;50.956;3.106;2023-05-10T16:11:37;19.40;88.30
17918;DHT22;9084;50.956;3.106;2023-05-10T16:14:03;19.50;89.70
17918;DHT22;9084;50.956;3.106;2023-05-10T16:16:29;19.50;90.90
17918;DHT22;9084;50.956;3.106;2023-05-10T16:18:56;19.60;89.30
17918;DHT22;9084;50.956;3.106;2023-05-10T16:21:22;19.60;90.00
17918;DHT22;9084;50.956;3.106;2023-05-10T16:23:51;19.50;89.70
17918;DHT22;9084;50.956;3.106;2023-05-10T16:26:17;19.60;90.90